Decoded Metar for KPVU (PROVO MUNI in UT, USA) (IATA:PVU) | Meteo·Mobile Aviation Weather
aviador You're here:

KPVU Decoded Metar

PROVO MUNI in UT, USA
Report Time2019-01-20 10:56:00
UTC Time2019-01-20 11:29:11
Flight Rules vfr VFR
Wind270° at 04 kt
W.Decomp.*RWY 31: 2.5 kt HW 3.2 kt LCW
RWY 18: 0.8 kt HW 3.9 kt RCW
W.Rank270° ranks 22
Current wind is below 270° avg. (6.2)
Visibility9999 m
Phenomena:N/A
Clouds:N/A
Expected CloudBase > 400 ft AGL from Temp-Dew spread
CeilingNone
Temp-1°C (ISA -7)
Dew Point-2°C (93% RH)
AAT-4.7°C
QNH1024 hPa
Density Alt3,346 ft
Elevation4,491 ft
Report Wrong Elevation
Raw Report
KPVU 201056Z AUTO 27004KT 10SM CLR M01/M02 A3024 RMK AO2 SLP256
T10111022 FZRANO=

Extra information for KPVU:More info

Metar Taf Metar & Taf Last 4 Metars F.Rules Stats Wind Profile Meteogram Temp Stats Airport Information Weather charts Add Link Nearby VenuesMetar ALERT Operation Metar Decoded Social comments

AIRNAV info for KPVU